Time;durP1;ratioP1;P1;durP2;ratioP2;P2;SDS_P1;SDS_P2;PMS_P1;PMS_P2;Temp;Humidity;BMP_temperature;BMP_pressure;BME280_temperature;BME280_humidity;BME280_pressure;Samples;Min_cycle;Max_cycle;Signal;HPM_P1;HPM_P2
2022/08/31 00:04:41;;;;;;;;;8.50;8.25;;;;;22.64;51.91;101274.44;5093834;28;45135;-82
2022/08/31 00:07:06;;;;;;;;;8.00;8.00;;;;;22.46;52.52;101237.91;5094859;28;45369;-82
2022/08/31 00:09:32;;;;;;;;;9.00;8.25;;;;;22.62;51.94;101262.84;5093118;28;45633;-82
2022/08/31 00:11:58;;;;;;;;;7.50;7.50;;;;;22.63;51.96;101269.97;5091096;28;51882;-83
2022/08/31 00:14:24;;;;;;;;;6.75;6.75;;;;;22.63;51.84;101269.97;5093743;28;44990;-83
2022/08/31 00:16:49;;;;;;;;;7.00;7.00;;;;;22.62;51.86;101265.53;5071400;28;45390;-83
2022/08/31 00:19:14;;;;;;;;;7.50;7.50;;;;;22.61;52.06;101270.00;5094097;28;45512;-83
2022/08/31 00:21:40;;;;;;;;;7.50;7.00;;;;;22.58;51.63;101258.41;5093624;28;45189;-83
2022/08/31 00:24:06;;;;;;;;;8.25;7.00;;;;;22.55;52.42;101251.25;5093813;28;44993;-83
2022/08/31 00:26:31;;;;;;;;;7.00;6.00;;;;;22.57;51.64;101252.16;5090732;28;45713;-83
2022/08/31 00:28:56;;;;;;;;;7.00;7.00;;;;;22.46;51.53;101235.25;5093366;28;51276;-83
2022/08/31 00:31:22;;;;;;;;;6.50;6.00;;;;;22.57;51.50;101257.50;5091840;28;45248;-83
2022/08/31 00:33:51;;;;;;;;;7.00;6.67;;;;;22.49;51.69;101245.94;5093347;28;48671;-84
2022/08/31 00:36:18;;;;;;;;;8.25;6.50;;;;;22.40;51.42;101235.28;5092715;28;44935;-83
2022/08/31 00:38:43;;;;;;;;;6.00;6.00;;;;;22.65;51.33;101258.31;5092996;28;46531;-83
2022/08/31 00:41:09;;;;;;;;;7.75;7.25;;;;;22.63;51.04;101251.22;5091503;28;45211;-83
2022/08/31 00:43:46;;;;;;;;;8.25;7.00;;;;;22.68;50.99;101265.47;5093564;28;45182;-83
2022/08/31 00:46:16;;;;;;;;;8.00;7.50;;;;;22.69;50.99;101258.31;5092945;28;45073;-83
2022/08/31 00:48:53;;;;;;;;;7.00;7.00;;;;;22.67;50.99;101258.34;5092443;28;45835;-83
2022/08/31 00:51:19;;;;;;;;;5.25;4.25;;;;;22.61;50.83;101258.34;5074000;27;45523;-83
2022/08/31 00:53:46;;;;;;;;;7.00;6.50;;;;;22.57;51.04;101246.78;5092804;28;45255;-82
2022/08/31 00:56:12;;;;;;;;;7.25;7.00;;;;;22.61;51.14;101256.59;5090311;28;44930;-83
2022/08/31 00:58:37;;;;;;;;;5.00;5.00;;;;;22.61;51.02;101264.63;5092931;28;45540;-83
2022/08/31 01:01:06;;;;;;;;;6.00;6.00;;;;;22.60;51.06;101262.81;5092547;28;58975;-82
2022/08/31 01:03:32;;;;;;;;;8.25;7.75;;;;;22.54;51.17;101256.63;5074625;28;45154;-82
2022/08/31 01:05:57;;;;;;;;;6.00;5.50;;;;;22.41;51.22;101237.06;5091794;28;45450;-82
2022/08/31 01:08:22;;;;;;;;;8.00;8.00;;;;;22.52;50.90;101262.00;5092852;28;45143;-83
2022/08/31 01:10:48;;;;;;;;;6.00;6.00;;;;;22.51;50.98;101262.00;5091456;28;45330;-82
2022/08/31 01:13:14;;;;;;;;;7.50;7.00;;;;;22.45;50.63;101251.31;5092779;28;45246;-82
2022/08/31 01:15:46;;;;;;;;;6.75;6.75;;;;;22.40;50.89;101254.91;5091879;28;45545;-83
2022/08/31 01:18:13;;;;;;;;;6.50;6.50;;;;;22.30;50.68;101236.25;5092782;28;45866;-82
2022/08/31 01:21:08;;;;;;;;;8.00;7.00;;;;;22.43;50.97;101262.06;5091242;28;45170;-83
2022/08/31 01:23:41;;;;;;;;;5.00;5.00;;;;;22.37;50.98;101259.44;5092664;28;45135;-83
2022/08/31 01:26:09;;;;;;;;;5.75;5.75;;;;;22.36;51.19;101263.91;5089028;28;45009;-83
2022/08/31 01:28:35;;;;;;;;;8.00;7.00;;;;;22.30;50.76;101260.34;5090815;28;46397;-82
2022/08/31 01:31:05;;;;;;;;;6.00;4.50;;;;;22.35;51.21;101270.13;5092651;28;45023;-82
2022/08/31 01:33:31;;;;;;;;;9.00;9.00;;;;;22.26;51.02;101250.53;5091730;28;44931;-81
2022/08/31 01:35:57;;;;;;;;;7.00;7.00;;;;;22.28;51.15;101254.13;5072369;28;45223;-83
2022/08/31 01:38:23;;;;;;;;;6.00;5.50;;;;;22.25;51.13;101263.03;5091826;28;45899;-82
2022/08/31 01:40:53;;;;;;;;;6.00;5.50;;;;;22.28;51.08;101262.16;5088859;28;45116;-82
2022/08/31 01:43:19;;;;;;;;;5.00;5.00;;;;;22.15;50.79;101246.13;5092616;28;45100;-82
2022/08/31 01:45:44;;;;;;;;;6.25;6.00;;;;;22.22;51.17;101264.88;5092104;28;44984;-83
2022/08/31 01:48:10;;;;;;;;;6.25;5.25;;;;;22.24;51.05;101268.41;5092271;28;45220;-83
2022/08/31 01:50:36;;;;;;;;;7.00;6.00;;;;;22.22;50.98;101264.88;5089606;28;48684;-83
2022/08/31 01:53:01;;;;;;;;;7.50;7.00;;;;;22.06;50.94;101240.78;5092087;28;45069;-83
2022/08/31 01:55:26;;;;;;;;;5.75;5.75;;;;;22.14;51.34;101254.19;5090699;28;45203;-82
2022/08/31 01:57:52;;;;;;;;;6.00;6.00;;;;;22.14;51.24;101263.09;5091939;28;51004;-82
2022/08/31 02:00:17;;;;;;;;;5.00;5.00;;;;;22.10;51.18;101263.97;5092141;28;45101;-83
2022/08/31 02:02:42;;;;;;;;;6.75;6.75;;;;;22.12;51.54;101269.38;5089747;27;45261;-82
2022/08/31 02:05:08;;;;;;;;;6.00;6.00;;;;;22.00;51.26;101243.50;5072399;28;48675;-82
2022/08/31 02:07:33;;;;;;;;;5.75;5.25;;;;;21.95;51.34;101256.00;5091328;28;45150;-82
2022/08/31 02:09:58;;;;;;;;;7.00;5.00;;;;;22.03;51.48;101264.03;5092337;28;45260;-83
2022/08/31 02:12:24;;;;;;;;;6.50;4.00;;;;;21.91;51.41;101251.56;5089232;28;45010;-83
2022/08/31 02:14:49;;;;;;;;;5.25;5.25;;;;;21.97;51.65;101267.63;5091203;28;45193;-82
2022/08/31 02:17:15;;;;;;;;;6.50;6.50;;;;;21.96;51.35;101268.50;5089746;28;46078;-82
2022/08/31 02:19:40;;;;;;;;;4.50;4.50;;;;;21.94;51.56;101264.94;5090570;28;45274;-82
2022/08/31 02:22:06;;;;;;;;;5.00;4.25;;;;;21.94;51.49;101264.06;5091484;28;45114;-83
2022/08/31 02:24:31;;;;;;;;;6.00;5.50;;;;;21.84;51.86;101264.09;5091808;28;45133;-83
2022/08/31 02:26:57;;;;;;;;;6.50;6.25;;;;;21.81;51.68;101274.78;5089250;28;45726;-83
2022/08/31 02:29:22;;;;;;;;;5.75;5.00;;;;;21.78;51.71;101274.81;5091802;28;45172;-83
2022/08/31 02:31:47;;;;;;;;;5.50;5.00;;;;;21.65;51.71;101251.66;5090784;28;45352;-82
2022/08/31 02:34:13;;;;;;;;;5.00;5.00;;;;;21.65;51.84;101257.00;5090751;28;47348;-82
2022/08/31 02:36:38;;;;;;;;;7.00;6.00;;;;;21.75;51.78;101279.28;5090974;28;49530;-83
2022/08/31 02:39:04;;;;;;;;;7.25;6.50;;;;;21.71;51.82;101273.03;5091732;28;45104;-83
2022/08/31 02:41:29;;;;;;;;;4.50;4.50;;;;;21.69;51.47;101280.19;5089386;28;45408;-82
2022/08/31 02:43:54;;;;;;;;;6.50;6.25;;;;;21.60;52.01;101262.38;5092218;28;44962;-83
2022/08/31 02:46:20;;;;;;;;;5.25;5.00;;;;;21.65;51.90;101278.41;5088651;28;45672;-82
2022/08/31 02:48:45;;;;;;;;;5.00;5.00;;;;;21.55;52.05;101265.94;5089669;28;44921;-83
2022/08/31 02:51:11;;;;;;;;;4.75;4.00;;;;;21.59;51.76;101278.44;5091878;28;45278;-83
2022/08/31 02:53:37;;;;;;;;;5.00;5.00;;;;;21.60;52.25;101280.22;5091186;28;45000;-82
2022/08/31 02:56:03;;;;;;;;;4.75;4.75;;;;;21.34;52.16;101246.38;5089521;28;45422;-82
2022/08/31 02:58:29;;;;;;;;;5.75;5.75;;;;;21.56;52.13;101283.78;5092258;28;45672;-83
2022/08/31 03:00:54;;;;;;;;;6.50;6.25;;;;;21.54;52.07;101289.13;5091109;28;45000;-83
2022/08/31 03:03:20;;;;;;;;;5.75;5.00;;;;;21.46;51.77;101269.53;5091343;28;44897;-83
2022/08/31 03:05:46;;;;;;;;;6.00;6.00;;;;;21.42;51.98;101273.09;5091188;28;45849;-83
2022/08/31 03:08:11;;;;;;;;;5.00;4.00;;;;;21.47;52.17;101281.13;5089316;28;45241;-83
2022/08/31 03:10:37;;;;;;;;;6.00;6.00;;;;;21.36;52.49;101265.97;5069407;28;45568;-83
2022/08/31 03:13:02;;;;;;;;;8.25;6.25;;;;;21.36;51.98;101271.31;5089377;28;45634;-84
2022/08/31 03:15:28;;;;;;;;;4.50;4.50;;;;;21.44;52.28;101291.84;5092336;28;45357;-82
2022/08/31 03:17:54;;;;;;;;;6.25;6.00;;;;;21.41;52.38;101290.03;5093713;28;45111;-83
2022/08/31 03:20:22;;;;;;;;;5.50;5.50;;;;;21.35;52.50;101282.03;5093944;28;45024;-83
2022/08/31 03:22:47;;;;;;;;;4.25;4.00;;;;;21.35;52.24;101276.69;5093279;28;45021;-83
2022/08/31 03:25:15;;;;;;;;;4.75;4.75;;;;;21.10;52.18;101243.69;5094331;28;45970;-82
2022/08/31 03:27:40;;;;;;;;;5.75;5.75;;;;;21.38;52.50;101298.97;5093926;28;45163;-83
2022/08/31 03:30:09;;;;;;;;;6.75;6.00;;;;;21.37;52.32;101297.16;5092831;28;44993;-83
2022/08/31 03:32:35;;;;;;;;;5.75;5.50;;;;;21.37;52.53;101293.59;5093036;28;44953;-83
2022/08/31 03:35:00;;;;;;;;;6.00;6.00;;;;;21.33;52.63;101289.19;5094357;28;44928;-83
2022/08/31 03:37:27;;;;;;;;;6.00;5.75;;;;;21.10;52.81;101254.41;5094950;28;45214;-83
2022/08/31 03:39:52;;;;;;;;;6.25;6.00;;;;;21.36;52.74;101289.16;5091113;28;45004;-82
2022/08/31 03:42:18;;;;;;;;;6.25;6.00;;;;;21.30;52.52;101281.13;5092068;28;45292;-82
2022/08/31 03:44:45;;;;;;;;;7.00;7.00;;;;;21.41;53.23;101305.19;5094501;28;45834;-82
2022/08/31 03:47:10;;;;;;;;;8.25;7.75;;;;;21.29;53.53;101306.06;5093077;28;45441;-83
2022/08/31 03:49:35;;;;;;;;;5.75;5.75;;;;;21.24;53.33;101307.84;5094368;28;45115;-83
2022/08/31 03:52:01;;;;;;;;;8.00;7.00;;;;;21.20;53.32;101306.97;5093421;28;45446;-83
2022/08/31 03:54:26;;;;;;;;;5.75;5.00;;;;;21.16;53.38;101293.59;5093208;28;45715;-83
2022/08/31 03:56:51;;;;;;;;;6.00;6.00;;;;;21.16;53.11;101301.63;5092342;28;45434;-83
2022/08/31 03:59:17;;;;;;;;;6.33;6.33;;;;;21.04;53.06;101278.47;5091362;28;55433;-82
2022/08/31 04:01:42;;;;;;;;;6.67;6.00;;;;;21.16;53.03;101298.94;5092768;28;56722;-83
2022/08/31 04:04:08;;;;;;;;;6.75;6.00;;;;;21.05;52.96;101290.94;5093907;28;45708;-83
2022/08/31 04:06:34;;;;;;;;;7.25;7.00;;;;;21.07;53.31;101295.38;5093472;28;44988;-83
2022/08/31 04:08:59;;;;;;;;;5.00;4.00;;;;;21.01;53.45;101284.69;5093779;28;45132;-82
2022/08/31 04:11:26;;;;;;;;;6.00;5.25;;;;;20.96;52.99;101280.22;5091899;28;45039;-83
2022/08/31 04:13:52;;;;;;;;;9.00;9.00;;;;;21.02;52.85;101304.28;5093579;28;45176;-82
2022/08/31 04:16:20;;;;;;;;;6.00;6.00;;;;;21.03;52.81;101303.38;5093198;28;45157;-83
2022/08/31 04:18:46;;;;;;;;;8.75;7.00;;;;;21.00;52.95;101298.94;5094070;28;44977;-83
2022/08/31 04:21:16;;;;;;;;;6.50;6.00;;;;;20.99;52.93;101307.84;5092219;28;44982;-82
2022/08/31 04:23:42;;;;;;;;;5.75;5.75;;;;;20.96;53.48;101310.50;5093122;28;45709;-83
2022/08/31 04:26:22;;;;;;;;;6.00;5.50;;;;;21.08;52.77;101306.94;5090672;27;45186;-83
2022/08/31 04:28:49;;;;;;;;;8.00;7.75;;;;;21.04;52.96;101308.75;5094088;28;45326;-83
2022/08/31 04:31:16;;;;;;;;;6.00;5.75;;;;;20.97;53.14;101314.06;5092322;28;45094;-82
2022/08/31 04:33:42;;;;;;;;;8.00;6.75;;;;;20.93;53.36;101315.84;5090907;28;46013;-83
2022/08/31 04:36:10;;;;;;;;;6.00;5.00;;;;;20.92;53.56;101310.50;5091149;28;45248;-83
2022/08/31 04:38:35;;;;;;;;;6.50;6.50;;;;;20.89;53.25;101310.53;5091849;28;45017;-82
2022/08/31 04:41:08;;;;;;;;;5.25;5.25;;;;;20.87;53.22;101300.69;5090755;28;45197;-82
2022/08/31 04:43:35;;;;;;;;;8.00;7.75;;;;;20.79;53.26;101297.16;5089665;28;47473;-83
2022/08/31 04:46:03;;;;;;;;;8.00;6.25;;;;;20.84;53.45;101306.06;5073627;28;45697;-82
2022/08/31 04:48:28;;;;;;;;;6.00;6.00;;;;;20.82;53.96;101313.16;5092132;28;45132;-82
2022/08/31 04:51:00;;;;;;;;;6.75;6.00;;;;;20.66;54.25;101295.31;5090175;28;45215;-82
2022/08/31 04:53:26;;;;;;;;;7.00;7.00;;;;;20.78;54.40;101319.38;5090741;28;45692;-83
2022/08/31 04:55:51;;;;;;;;;5.50;5.50;;;;;20.63;54.47;101311.34;5091479;28;45065;-83
2022/08/31 04:58:19;;;;;;;;;8.00;7.00;;;;;20.68;54.15;101308.69;5091895;28;50141;-83
2022/08/31 05:00:45;;;;;;;;;8.50;7.25;;;;;20.68;54.60;101317.59;5090951;28;45056;-83
2022/08/31 05:03:10;;;;;;;;;6.00;5.75;;;;;20.55;54.78;101295.31;5093304;28;46105;-82
2022/08/31 05:05:39;;;;;;;;;5.25;5.25;;;;;20.55;54.59;101300.66;5072619;28;45110;-81
2022/08/31 05:08:05;;;;;;;;;8.25;6.25;;;;;20.61;54.49;101316.69;5093257;28;44934;-83
2022/08/31 05:10:30;;;;;;;;;6.25;6.25;;;;;20.64;53.87;101312.22;5089185;28;44979;-82
2022/08/31 05:12:56;;;;;;;;;6.00;6.00;;;;;20.63;54.18;101315.78;5093105;28;51016;-82
2022/08/31 05:15:21;;;;;;;;;5.75;5.00;;;;;20.62;54.34;101328.25;5092193;28;45218;-83
2022/08/31 05:17:46;;;;;;;;;6.50;6.25;;;;;20.58;54.27;101316.66;5092573;28;44876;-83
2022/08/31 05:20:12;;;;;;;;;6.00;5.75;;;;;20.64;54.36;101325.56;5091795;28;45255;-83
2022/08/31 05:22:37;;;;;;;;;6.67;6.00;;;;;20.64;54.15;101326.50;5090433;28;52578;-82
2022/08/31 05:25:05;;;;;;;;;9.00;8.75;;;;;20.52;54.12;101300.63;5087112;28;45369;-83
2022/08/31 05:27:32;;;;;;;;;6.75;6.25;;;;;20.64;54.15;101321.16;5090120;28;45060;-82
2022/08/31 05:29:57;;;;;;;;;6.25;6.25;;;;;20.63;54.30;101318.47;5091487;28;45093;-83
2022/08/31 05:32:23;;;;;;;;;6.25;6.00;;;;;20.57;54.83;101314.00;5090724;28;45843;-83
2022/08/31 05:34:50;;;;;;;;;6.00;6.00;;;;;20.61;54.94;101329.16;5092364;28;52138;-83
2022/08/31 05:37:15;;;;;;;;;7.00;7.00;;;;;20.71;55.07;101324.72;5086455;28;45278;-82
2022/08/31 05:39:41;;;;;;;;;6.00;6.00;;;;;20.73;54.42;101330.94;5090057;27;45206;-82
2022/08/31 05:42:06;;;;;;;;;7.00;6.75;;;;;20.74;54.43;101322.97;5084780;28;45287;-83
2022/08/31 05:44:35;;;;;;;;;7.75;7.00;;;;;20.60;54.43;101300.66;5092188;28;45033;-82
2022/08/31 05:47:01;;;;;;;;;6.75;6.00;;;;;20.75;54.43;101327.41;5092225;28;44999;-82
2022/08/31 05:49:27;;;;;;;;;6.75;6.50;;;;;20.76;54.97;101325.63;5091336;28;45194;-82
2022/08/31 05:51:52;;;;;;;;;9.00;8.00;;;;;20.69;55.15;101315.78;5091908;28;45492;-83
2022/08/31 05:54:18;;;;;;;;;8.50;6.25;;;;;20.75;55.29;101329.19;5091634;28;45053;-83
2022/08/31 05:56:44;;;;;;;;;7.00;6.50;;;;;20.78;54.75;101334.53;5088510;28;45212;-82
2022/08/31 05:59:11;;;;;;;;;8.00;6.50;;;;;20.79;55.02;101334.53;5090615;28;45093;-83
2022/08/31 06:01:38;;;;;;;;;9.00;8.00;;;;;20.77;55.37;101330.06;5088388;28;45203;-83
2022/08/31 06:04:04;;;;;;;;;9.00;8.75;;;;;20.72;55.07;101334.50;5090661;28;45523;-82
2022/08/31 06:06:29;;;;;;;;;9.00;8.50;;;;;20.75;54.75;101327.41;5087008;28;45015;-82
2022/08/31 06:08:55;;;;;;;;;9.75;8.50;;;;;20.80;54.96;101330.09;5090565;28;45361;-82
2022/08/31 06:11:27;;;;;;;;;8.25;8.00;;;;;20.78;55.16;101327.41;5088389;28;45567;-82
2022/08/31 06:13:55;;;;;;;;;7.00;7.00;;;;;20.82;55.26;101330.97;5089543;28;45465;-82
2022/08/31 06:16:21;;;;;;;;;7.25;6.75;;;;;20.85;55.33;101333.66;5088574;28;45218;-82
2022/08/31 06:18:50;;;;;;;;;8.00;8.00;;;;;20.86;54.86;101340.78;5091820;28;45085;-81
2022/08/31 06:21:22;;;;;;;;;9.50;8.25;;;;;20.89;54.97;101338.13;5086807;28;45982;-83
2022/08/31 06:23:49;;;;;;;;;7.00;7.00;;;;;20.91;54.68;101336.34;5089773;28;45488;-83
2022/08/31 06:26:15;;;;;;;;;8.75;8.25;;;;;20.85;55.36;101331.88;5086486;28;45349;-82
2022/08/31 06:28:43;;;;;;;;;7.75;6.75;;;;;20.93;55.00;101331.88;5087815;28;45489;-83
2022/08/31 06:31:20;;;;;;;;;9.00;8.00;;;;;20.95;55.05;101332.78;5087659;28;45311;-83
2022/08/31 06:33:46;;;;;;;;;9.75;9.00;;;;;20.97;55.16;101336.34;5088347;28;45644;-82
2022/08/31 06:36:16;;;;;;;;;9.00;8.50;;;;;20.97;54.80;101328.31;5086497;28;45297;-83
2022/08/31 06:38:42;;;;;;;;;8.00;8.00;;;;;20.96;54.86;101323.88;5089635;28;44986;-83
2022/08/31 06:41:11;;;;;;;;;11.00;9.00;;;;;20.96;54.92;101329.22;5087187;28;45219;-82
2022/08/31 06:43:37;;;;;;;;;9.00;9.00;;;;;21.03;54.39;101332.78;5090701;28;45194;-82
2022/08/31 06:46:02;;;;;;;;;10.00;10.00;;;;;20.97;54.99;101325.66;5072024;28;45455;-83
2022/08/31 06:48:27;;;;;;;;;11.25;10.75;;;;;21.01;54.46;101332.78;5090522;28;51430;-83
2022/08/31 06:50:57;;;;;;;;;13.00;13.00;;;;;21.06;54.46;101336.34;5088073;27;58568;-83
2022/08/31 06:53:22;;;;;;;;;8.50;8.00;;;;;21.10;54.50;101340.81;5093548;28;45342;-83
2022/08/31 06:55:47;;;;;;;;;10.00;9.75;;;;;21.06;54.33;101335.47;5072171;28;48044;-83
2022/08/31 06:58:13;;;;;;;;;10.33;9.00;;;;;20.99;54.20;101318.53;5089803;28;56441;-83
2022/08/31 07:00:38;;;;;;;;;8.00;8.00;;;;;21.14;54.00;101341.72;5091117;28;45704;-83
2022/08/31 07:03:21;;;;;;;;;8.25;8.00;;;;;20.82;54.84;101283.78;5089677;28;45004;-82
2022/08/31 07:05:47;;;;;;;;;12.00;10.25;;;;;21.07;54.53;101327.44;5088431;28;45372;-82
2022/08/31 07:08:13;;;;;;;;;9.25;8.75;;;;;21.10;54.99;101347.94;5092602;28;45237;-82
2022/08/31 07:10:38;;;;;;;;;8.50;8.50;;;;;21.05;55.04;101334.56;5088327;28;45372;-82
2022/08/31 07:13:03;;;;;;;;;10.33;10.33;;;;;21.12;54.94;101354.19;5092391;28;47668;-82
2022/08/31 07:15:29;;;;;;;;;11.00;10.00;;;;;21.27;54.33;101340.81;5090851;28;45053;-82
2022/08/31 07:17:54;;;;;;;;;12.67;11.67;;;;;21.30;54.34;101340.84;5075861;28;44941;-83
2022/08/31 07:20:19;;;;;;;;;12.33;11.00;;;;;21.34;54.29;101349.78;5093850;28;57367;-82
2022/08/31 07:22:44;;;;;;;;;10.50;10.00;;;;;21.21;54.55;101323.88;5094122;28;44942;-83
2022/08/31 07:25:10;;;;;;;;;13.00;12.33;;;;;21.32;53.90;101339.06;5093708;28;44906;-82
2022/08/31 07:27:35;;;;;;;;;11.00;10.50;;;;;21.26;54.43;101327.44;5091142;28;45024;-82
2022/08/31 07:30:01;;;;;;;;;12.25;11.00;;;;;21.38;54.11;101349.78;5073113;28;46315;-82
2022/08/31 07:32:26;;;;;;;;;12.75;11.00;;;;;21.19;54.27;101331.91;5092067;28;45136;-82
2022/08/31 07:34:52;;;;;;;;;12.00;11.33;;;;;21.21;54.64;101339.94;5092363;28;52479;-83
2022/08/31 07:42:48;;;;;;;;;12.00;10.75;;;;;21.38;54.71;101332.84;5093489;28;45527;-82
2022/08/31 07:45:20;;;;;;;;;13.50;11.00;;;;;21.29;54.73;101339.06;5093512;28;45092;-82
2022/08/31 07:47:50;;;;;;;;;10.75;10.50;;;;;21.38;54.59;101347.13;5092411;28;45095;-83
2022/08/31 07:50:16;;;;;;;;;11.50;11.50;;;;;21.39;54.63;101345.31;5091328;28;46119;-82
2022/08/31 07:52:47;;;;;;;;;8.75;8.75;;;;;21.45;54.53;101350.66;5090624;28;45159;-83
2022/08/31 07:55:15;;;;;;;;;10.00;10.00;;;;;21.48;54.43;101349.78;5091159;28;45288;-82
2022/08/31 07:57:44;;;;;;;;;12.25;12.25;;;;;21.42;54.52;101331.03;5087999;28;45361;-82
2022/08/31 08:00:17;;;;;;;;;11.75;11.75;;;;;21.44;54.42;101330.16;5090354;28;45457;-82
2022/08/31 08:02:45;;;;;;;;;12.50;11.75;;;;;21.58;54.02;101349.78;5088738;28;45445;-83
2022/08/31 08:05:20;;;;;;;;;12.00;11.00;;;;;21.48;54.02;101317.69;5091496;28;44946;-83
2022/08/31 08:07:48;;;;;;;;;12.00;10.25;;;;;21.64;54.19;101340.84;5093096;28;45204;-83
2022/08/31 08:10:15;;;;;;;;;12.75;12.25;;;;;21.67;54.25;101339.94;5092972;28;45769;-82
2022/08/31 08:12:42;;;;;;;;;11.00;11.00;;;;;21.69;53.82;101336.38;5091959;28;45119;-82
2022/08/31 08:15:08;;;;;;;;;10.00;10.00;;;;;21.62;54.24;101310.50;5091702;28;45351;-83
2022/08/31 08:17:34;;;;;;;;;10.00;9.25;;;;;21.75;54.38;101322.09;5091414;28;44911;-82
2022/08/31 08:20:00;;;;;;;;;13.75;12.00;;;;;21.81;53.92;101330.97;5072772;28;47602;-82
2022/08/31 08:22:25;;;;;;;;;12.00;11.00;;;;;21.79;54.01;101323.88;5093568;28;49203;-82
2022/08/31 08:24:50;;;;;;;;;13.25;11.00;;;;;21.87;53.84;101330.06;5091009;28;45795;-82
2022/08/31 08:27:16;;;;;;;;;14.00;13.75;;;;;21.89;53.50;101322.94;5088288;28;45331;-82
2022/08/31 08:29:41;;;;;;;;;8.50;8.50;;;;;21.89;54.16;101315.81;5092631;28;44974;-82
2022/08/31 08:32:08;;;;;;;;;11.50;11.25;;;;;21.97;53.93;101317.56;5092785;28;44934;-82
2022/08/31 08:34:39;;;;;;;;;12.75;11.00;;;;;21.92;53.81;101297.94;5091821;28;45432;-83
2022/08/31 08:37:06;;;;;;;;;10.25;9.25;;;;;22.02;53.38;101310.41;5093351;28;44922;-83
2022/08/31 08:39:32;;;;;;;;;12.75;12.00;;;;;22.07;53.71;101309.53;5091907;28;45491;-83
2022/08/31 08:41:57;;;;;;;;;15.00;14.50;;;;;22.23;53.15;101320.19;5090947;28;53827;-83
2022/08/31 08:44:27;;;;;;;;;12.00;11.75;;;;;22.31;53.07;101319.25;5074863;28;45033;-84
2022/08/31 08:46:56;;;;;;;;;11.50;11.00;;;;;22.12;52.76;101310.44;5092610;28;45506;-82
2022/08/31 08:49:27;;;;;;;;;16.25;15.50;;;;;22.26;53.15;101320.16;5093404;28;45619;-82
2022/08/31 08:52:03;;;;;;;;;13.75;13.50;;;;;22.28;53.03;101321.94;5090254;28;45145;-82
2022/08/31 08:54:30;;;;;;;;;12.75;11.75;;;;;22.32;52.63;101326.41;5074798;28;44925;-83
2022/08/31 08:56:58;;;;;;;;;15.25;12.50;;;;;22.33;52.67;101320.16;5091393;28;45273;-82
2022/08/31 08:59:24;;;;;;;;;13.50;13.25;;;;;22.37;52.70;101313.00;5091612;28;46128;-82
2022/08/31 09:02:05;;;;;;;;;11.75;11.75;;;;;22.40;52.84;101310.28;5090559;28;45345;-83
2022/08/31 09:04:44;;;;;;;;;13.50;13.25;;;;;22.45;52.90;101308.47;5074310;28;44938;-82
2022/08/31 09:07:19;;;;;;;;;16.50;14.50;;;;;22.50;52.60;101313.81;5086972;28;45318;-83
2022/08/31 09:10:13;;;;;;;;;13.75;12.75;;;;;22.54;52.67;101311.09;5088723;28;45685;-83
2022/08/31 09:12:56;;;;;;;;;12.25;12.00;;;;;22.57;52.35;101308.41;5089559;27;45560;-83
2022/08/31 09:15:54;;;;;;;;;14.00;13.25;;;;;22.59;52.22;101305.72;5091984;28;44974;-83
2022/08/31 09:18:31;;;;;;;;;13.75;13.25;;;;;22.63;52.28;101307.47;5092521;28;45064;-83
2022/08/31 09:21:29;;;;;;;;;12.25;10.50;;;;;22.77;52.00;101308.28;5088938;28;45236;-83
2022/08/31 09:24:04;;;;;;;;;11.00;11.00;;;;;22.73;51.96;101302.97;5089120;28;45543;-83
2022/08/31 09:26:44;;;;;;;;;10.00;10.00;;;;;22.81;51.87;101311.84;5088443;28;45418;-83
2022/08/31 09:29:20;;;;;;;;;13.25;13.00;;;;;22.85;52.25;101298.38;5091577;28;44995;-83
2022/08/31 09:31:45;;;;;;;;;13.25;12.25;;;;;22.86;52.21;101288.59;5089267;28;45578;-83
2022/08/31 09:34:35;;;;;;;;;12.00;12.00;;;;;22.94;52.30;101278.72;5089922;28;45093;-83
2022/08/31 09:37:17;;;;;;;;;10.00;8.00;;;;;23.02;51.79;101287.59;5092606;28;45095;-83
2022/08/31 09:39:46;;;;;;;;;11.75;10.50;;;;;23.04;51.84;101283.09;5092472;28;45059;-83
2022/08/31 09:42:32;;;;;;;;;13.50;13.00;;;;;23.12;51.73;101286.59;5090056;28;45325;-82
2022/08/31 09:45:16;;;;;;;;;14.00;13.00;;;;;23.18;51.38;101286.56;5091143;28;45553;-83
2022/08/31 09:47:54;;;;;;;;;17.00;14.00;;;;;23.23;51.41;101280.25;5089414;28;45437;-82
2022/08/31 09:50:45;;;;;;;;;13.00;13.00;;;;;23.25;51.65;101284.72;5090871;28;45192;-83
2022/08/31 09:56:19;;;;;;;;;12.00;11.25;;;;;23.36;51.11;101281.94;5088716;28;45128;-83
2022/08/31 09:59:00;;;;;;;;;10.25;10.25;;;;;23.37;51.41;101264.94;5091867;28;45056;-83
2022/08/31 10:01:28;;;;;;;;;11.00;10.50;;;;;23.48;51.60;101268.38;5091259;28;44910;-83
2022/08/31 10:04:27;;;;;;;;;11.25;11.25;;;;;23.55;50.93;101264.75;5091886;28;45202;-83
2022/08/31 10:07:23;;;;;;;;;11.50;10.75;;;;;23.62;50.73;101268.25;5054949;28;45519;-83
2022/08/31 10:10:07;;;;;;;;;11.00;11.00;;;;;23.69;50.71;101259.25;5072777;28;45014;-82
2022/08/31 10:12:50;;;;;;;;;10.75;10.75;;;;;23.85;50.93;101266.22;5089171;28;45428;-83
2022/08/31 10:15:23;;;;;;;;;10.75;10.75;;;;;23.96;50.27;101262.53;5088879;28;47286;-82
2022/08/31 10:17:59;;;;;;;;;13.25;13.00;;;;;24.03;50.12;101259.72;5091156;28;45232;-83
2022/08/31 10:20:38;;;;;;;;;11.50;11.50;;;;;24.07;49.94;101261.47;5088824;28;45158;-83
2022/08/31 10:23:19;;;;;;;;;16.25;14.25;;;;;24.10;49.38;101253.38;5092325;28;45053;-83
2022/08/31 10:25:53;;;;;;;;;12.75;12.00;;;;;24.11;49.68;101248.91;5088060;28;46442;-82
2022/08/31 10:28:36;;;;;;;;;8.50;8.50;;;;;24.24;50.13;101257.69;5091300;28;45612;-82
2022/08/31 10:31:12;;;;;;;;;11.75;11.50;;;;;24.29;50.05;101250.47;5092199;28;45010;-83
2022/08/31 10:37:07;;;;;;;;;15.25;13.00;;;;;24.33;48.98;101234.25;4987752;28;45495;-83
2022/08/31 10:39:40;;;;;;;;;10.00;10.00;;;;;24.50;49.39;101252.88;4989204;28;45138;-83
2022/08/31 10:42:17;;;;;;;;;12.25;12.00;;;;;24.51;49.17;101246.56;5043002;28;45095;-82
2022/08/31 10:45:08;;;;;;;;;13.75;13.75;;;;;24.65;48.83;101255.31;5091135;28;45761;-83
2022/08/31 10:47:41;;;;;;;;;12.00;11.50;;;;;24.64;49.28;101229.34;5091306;28;45446;-83
2022/08/31 10:50:09;;;;;;;;;14.25;13.50;;;;;24.79;49.07;101249.72;5089491;28;45654;-82
2022/08/31 10:52:46;;;;;;;;;10.25;9.25;;;;;24.82;48.86;101235.34;5091913;28;45137;-83
2022/08/31 10:55:34;;;;;;;;;13.50;13.00;;;;;24.93;48.83;101242.34;5087720;28;45182;-82
2022/08/31 10:58:24;;;;;;;;;12.75;12.00;;;;;24.91;48.29;101227.13;5089312;28;47547;-84
2022/08/31 11:01:38;;;;;;;;;13.00;13.00;;;;;25.09;48.40;101245.69;5089802;28;45322;-83
2022/08/31 11:04:28;;;;;;;;;11.75;11.50;;;;;25.18;48.69;101242.84;5044874;28;45240;-82
2022/08/31 11:07:13;;;;;;;;;12.25;12.25;;;;;25.20;47.91;101238.28;5091287;28;45119;-82
2022/08/31 11:09:41;;;;;;;;;14.50;13.75;;;;;25.22;48.15;101251.72;5080973;28;45703;-83
2022/08/31 11:12:17;;;;;;;;;10.50;10.50;;;;;25.21;48.18;101232.00;5088106;28;45013;-83
2022/08/31 11:15:21;;;;;;;;;11.75;11.75;;;;;25.29;47.58;101248.00;5091660;28;45176;-83
2022/08/31 11:18:05;;;;;;;;;13.75;13.25;;;;;25.32;47.80;101236.28;5091715;28;45034;-83
2022/08/31 11:20:39;;;;;;;;;15.00;14.50;;;;;25.38;47.44;101233.50;5090821;28;45562;-83
2022/08/31 11:23:04;;;;;;;;;13.00;13.00;;;;;25.45;47.33;101230.66;5091344;28;45099;-83
2022/08/31 11:25:55;;;;;;;;;14.00;13.25;;;;;25.56;47.24;101224.16;5088249;28;45025;-83
2022/08/31 11:28:32;;;;;;;;;10.50;10.50;;;;;25.63;46.96;101233.91;5089521;28;44987;-83
2022/08/31 11:31:18;;;;;;;;;11.50;11.25;;;;;25.67;46.97;101225.75;5090318;28;45621;-83
2022/08/31 11:33:50;;;;;;;;;11.75;11.75;;;;;25.80;46.96;101229.09;5089972;28;45551;-83
2022/08/31 11:36:46;;;;;;;;;13.25;12.75;;;;;25.85;47.21;101219.13;5091547;27;45082;-83
2022/08/31 11:39:12;;;;;;;;;10.25;9.50;;;;;25.90;46.80;101211.81;5094098;28;44989;-82
2022/08/31 11:41:49;;;;;;;;;12.00;11.75;;;;;25.98;47.04;101215.25;5092668;28;45796;-83
2022/08/31 11:44:28;;;;;;;;;11.75;11.75;;;;;26.07;46.88;101211.47;5093206;28;45284;-83
2022/08/31 11:47:08;;;;;;;;;13.00;12.25;;;;;26.15;46.59;101211.28;5093454;28;45078;-83